Time;durP1;ratioP1;P1;durP2;ratioP2;P2;SDS_P1;SDS_P2;PMS_P1;PMS_P2;Temp;Humidity;BMP_temperature;BMP_pressure;BME280_temperature;BME280_humidity;BME280_pressure;Samples;Min_cycle;Max_cycle;Signal;HPM_P1;HPM_P2
2022/01/25 00:09:16;;;;;;;26.77;16.20;;;4.30;75.30;;;;;;5057327;28;20206;-70
2022/01/25 00:25:56;;;;;;;28.98;15.52;;;4.20;75.60;;;;;;5079352;28;21140;-70
2022/01/25 00:28:28;;;;;;;28.02;15.82;;;4.20;75.70;;;;;;5078407;28;20218;-70
2022/01/25 00:31:03;;;;;;;25.73;14.40;;;4.20;75.70;;;;;;5081999;28;20626;-70
2022/01/25 00:33:33;;;;;;;27.33;16.77;;;4.20;75.60;;;;;;5079908;28;20259;-70
2022/01/25 00:36:03;;;;;;;26.42;16.73;;;4.20;75.60;;;;;;5075602;28;20203;-70
2022/01/25 00:38:31;;;;;;;29.08;17.73;;;4.20;75.40;;;;;;5081842;28;20198;-70
2022/01/25 00:41:01;;;;;;;28.65;17.77;;;4.20;75.40;;;;;;5080554;28;20199;-70
2022/01/25 00:43:29;;;;;;;27.45;17.20;;;4.20;75.40;;;;;;5080082;28;20738;-70
2022/01/25 00:46:00;;;;;;;25.75;16.92;;;4.10;75.40;;;;;;5080621;28;20325;-70
2022/01/25 00:48:42;;;;;;;28.70;17.25;;;4.10;75.40;;;;;;5081077;28;20198;-69
2022/01/25 00:54:08;;;;;;;27.60;17.77;;;4.10;75.40;;;;;;5053428;28;20250;-70
2022/01/25 00:56:43;;;;;;;29.20;16.58;;;4.10;75.40;;;;;;5086555;28;20221;-70
2022/01/25 00:59:13;;;;;;;31.02;16.35;;;4.10;75.40;;;;;;5067040;28;20241;-71
2022/01/25 01:01:42;;;;;;;29.20;16.17;;;4.00;75.40;;;;;;5086064;28;20284;-70
2022/01/25 01:04:11;;;;;;;29.77;16.40;;;4.00;75.40;;;;;;5085718;28;20302;-70
2022/01/25 01:06:41;;;;;;;27.85;16.20;;;4.00;75.30;;;;;;5085053;28;20211;-71
2022/01/25 01:09:11;;;;;;;26.65;16.77;;;4.00;75.30;;;;;;5068424;28;20207;-71
2022/01/25 01:11:48;;;;;;;27.85;17.40;;;4.00;75.40;;;;;;5082441;28;20191;-71
2022/01/25 01:14:22;;;;;;;32.67;18.17;;;4.00;75.50;;;;;;5084022;28;20343;-71
2022/01/25 01:17:14;;;;;;;30.00;17.80;;;4.00;75.50;;;;;;5084600;28;20234;-70
2022/01/25 01:30:57;;;;;;;24.02;15.85;;;3.90;75.30;;;;;;5082555;28;20238;-70
2022/01/25 01:42:14;;;;;;;34.13;16.95;;;3.80;75.20;;;;;;5071133;28;20214;-69
2022/01/25 01:45:06;;;;;;;25.45;15.23;;;3.80;75.20;;;;;;5082697;28;20230;-70
2022/01/25 01:47:39;;;;;;;25.80;15.98;;;3.80;75.20;;;;;;5079858;28;20886;-70
2022/01/25 01:50:09;;;;;;;25.67;15.52;;;3.70;75.20;;;;;;5080716;28;20216;-71
2022/01/25 01:52:37;;;;;;;31.20;17.52;;;3.70;75.20;;;;;;5081031;28;20742;-70
2022/01/25 01:55:07;;;;;;;28.15;16.92;;;3.70;75.10;;;;;;5081099;28;20223;-70
2022/01/25 01:57:36;;;;;;;28.67;16.00;;;3.70;75.10;;;;;;5080524;28;20214;-70
2022/01/25 02:00:07;;;;;;;29.52;16.33;;;3.70;75.00;;;;;;5060314;28;20946;-70
2022/01/25 02:02:42;;;;;;;28.40;16.83;;;3.60;75.10;;;;;;5063539;28;20272;-70
2022/01/25 02:05:11;;;;;;;29.38;16.70;;;3.60;75.10;;;;;;5084368;28;20226;-70
2022/01/25 02:07:39;;;;;;;24.85;15.30;;;3.60;75.10;;;;;;5076431;28;20199;-70
2022/01/25 02:10:08;;;;;;;28.42;18.15;;;3.60;75.10;;;;;;5079790;28;20937;-70
2022/01/25 02:12:37;;;;;;;27.27;16.75;;;3.60;75.10;;;;;;5081922;28;20256;-70
2022/01/25 02:15:07;;;;;;;31.73;17.65;;;3.60;75.10;;;;;;5083513;28;20225;-70
2022/01/25 02:17:55;;;;;;;32.70;17.00;;;3.60;75.00;;;;;;5083505;28;20227;-70
2022/01/25 02:23:18;;;;;;;25.20;15.45;;;3.60;75.00;;;;;;5081991;28;20272;-70
2022/01/25 02:25:48;;;;;;;31.52;17.73;;;3.50;75.10;;;;;;5084740;28;20233;-70
2022/01/25 02:28:17;;;;;;;23.80;15.00;;;3.50;75.10;;;;;;5078539;28;20276;-70
2022/01/25 02:30:46;;;;;;;28.55;16.58;;;3.50;75.00;;;;;;5085729;28;20250;-70
2022/01/25 02:33:14;;;;;;;29.95;17.35;;;3.50;75.00;;;;;;5083148;28;20199;-70
2022/01/25 02:35:44;;;;;;;26.20;16.20;;;3.50;75.10;;;;;;5086312;28;20226;-70
2022/01/25 02:38:14;;;;;;;22.05;14.00;;;3.50;75.10;;;;;;5081714;28;20207;-70
2022/01/25 02:40:42;;;;;;;23.58;14.52;;;3.50;75.00;;;;;;5082769;28;20255;-70
2022/01/25 02:43:12;;;;;;;27.50;16.73;;;3.40;74.90;;;;;;5083626;28;20207;-70
2022/01/25 02:45:40;;;;;;;22.83;15.05;;;3.40;74.90;;;;;;5066433;28;20238;-70
2022/01/25 02:50:55;;;;;;;25.25;16.17;;;3.40;74.90;;;;;;5083725;28;20206;-70
2022/01/25 02:53:23;;;;;;;26.77;16.20;;;3.30;74.90;;;;;;5080003;28;20212;-70
2022/01/25 02:55:51;;;;;;;27.65;17.33;;;3.30;74.90;;;;;;5080447;28;20279;-70
2022/01/25 02:58:19;;;;;;;31.80;17.08;;;3.30;74.80;;;;;;5080793;28;20228;-70
2022/01/25 03:00:48;;;;;;;35.33;19.08;;;3.30;74.90;;;;;;5083321;28;20299;-70
2022/01/25 03:03:16;;;;;;;34.85;18.60;;;3.30;74.90;;;;;;5072543;28;20192;-70
2022/01/25 03:05:45;;;;;;;26.00;16.05;;;3.30;74.90;;;;;;5058269;28;20727;-70
2022/01/25 03:08:15;;;;;;;23.63;15.18;;;3.30;74.80;;;;;;5081997;28;20235;-70
2022/01/25 03:10:47;;;;;;;27.33;17.33;;;3.20;74.80;;;;;;5084471;28;20214;-70
2022/01/25 03:13:19;;;;;;;32.28;17.15;;;3.20;74.80;;;;;;5081305;28;20311;-70
2022/01/25 03:16:03;;;;;;;23.40;15.52;;;3.20;74.80;;;;;;5080977;28;20242;-70
2022/01/25 03:18:43;;;;;;;30.52;16.15;;;3.20;74.70;;;;;;5083987;28;20222;-70
2022/01/25 03:24:02;;;;;;;25.00;14.52;;;3.10;74.70;;;;;;5073675;28;20238;-70
2022/01/25 03:26:31;;;;;;;27.58;15.40;;;3.10;74.70;;;;;;5082063;28;20203;-70
2022/01/25 03:29:00;;;;;;;28.42;16.23;;;3.10;74.70;;;;;;5080984;28;20195;-70
2022/01/25 03:31:28;;;;;;;27.00;15.77;;;3.10;74.70;;;;;;5062930;28;20231;-70
2022/01/25 03:33:56;;;;;;;26.70;15.85;;;3.10;74.70;;;;;;5080989;28;20218;-70
2022/01/25 03:36:24;;;;;;;25.92;15.05;;;3.10;74.60;;;;;;5083618;28;20237;-70
2022/01/25 03:38:52;;;;;;;25.73;15.65;;;3.10;74.60;;;;;;5064574;28;20276;-70
2022/01/25 03:41:23;;;;;;;28.58;15.82;;;3.10;74.50;;;;;;5082532;28;20897;-70
2022/01/25 03:43:54;;;;;;;30.70;16.88;;;3.00;74.50;;;;;;5076902;28;20238;-70
2022/01/25 03:46:31;;;;;;;26.65;15.55;;;3.00;74.50;;;;;;5082183;28;20234;-70
2022/01/25 03:51:44;;;;;;;28.75;16.00;;;3.00;74.50;;;;;;5064000;28;20673;-70
2022/01/25 03:54:12;;;;;;;33.15;17.05;;;3.00;74.60;;;;;;5081316;28;20227;-70
2022/01/25 03:56:42;;;;;;;28.35;15.70;;;3.00;74.60;;;;;;5083003;28;20215;-70
2022/01/25 03:59:10;;;;;;;27.80;16.38;;;3.00;74.60;;;;;;5081816;28;20211;-70
2022/01/25 04:01:38;;;;;;;24.70;15.65;;;3.00;74.50;;;;;;5082137;28;20231;-70
2022/01/25 04:04:10;;;;;;;26.80;16.25;;;3.00;74.50;;;;;;5079081;28;20226;-70
2022/01/25 04:06:42;;;;;;;30.50;17.10;;;3.00;74.50;;;;;;5079008;28;20572;-70
2022/01/25 04:09:10;;;;;;;32.15;17.75;;;3.00;74.60;;;;;;5084670;28;20210;-70
2022/01/25 04:11:38;;;;;;;30.83;17.30;;;3.00;74.50;;;;;;5082618;28;20279;-70
2022/01/25 04:14:08;;;;;;;33.67;16.85;;;3.00;74.50;;;;;;5059867;28;21190;-70
2022/01/25 04:16:40;;;;;;;33.58;19.10;;;2.90;74.60;;;;;;5083161;28;20231;-70
2022/01/25 04:19:12;;;;;;;40.78;20.65;;;2.90;74.60;;;;;;5081906;28;20238;-70
2022/01/25 04:25:01;;;;;;;48.88;21.20;;;3.00;74.60;;;;;;5081999;28;20229;-70
2022/01/25 04:27:29;;;;;;;45.38;21.60;;;2.90;74.70;;;;;;5080351;28;20339;-70
2022/01/25 04:30:00;;;;;;;40.65;22.23;;;2.90;74.70;;;;;;5080435;28;20198;-70
2022/01/25 04:32:34;;;;;;;43.97;21.92;;;2.90;74.70;;;;;;5081523;28;20783;-70
2022/01/25 04:35:11;;;;;;;49.88;25.42;;;2.90;74.80;;;;;;5084540;28;20242;-70
2022/01/25 04:49:05;;;;;;;36.83;20.33;;;2.90;75.00;;;;;;5078485;28;20578;-70
2022/01/25 04:51:47;;;;;;;38.60;21.55;;;3.00;75.10;;;;;;5075076;28;20212;-70
2022/01/25 04:54:25;;;;;;;38.70;21.08;;;3.00;75.10;;;;;;5079652;28;20230;-70
2022/01/25 04:57:02;;;;;;;40.28;20.55;;;3.00;75.20;;;;;;5080239;28;20207;-70
2022/01/25 04:59:36;;;;;;;36.25;20.33;;;3.00;75.20;;;;;;5082444;28;20198;-70
2022/01/25 05:02:11;;;;;;;42.13;21.92;;;3.00;75.30;;;;;;5082104;28;20241;-70
2022/01/25 05:04:45;;;;;;;57.05;21.48;;;3.00;75.30;;;;;;5084961;28;20224;-70
2022/01/25 05:07:26;;;;;;;83.38;24.80;;;3.00;75.40;;;;;;5087530;28;20882;-70
2022/01/25 05:09:55;;;;;;;51.45;25.02;;;3.00;75.40;;;;;;5059478;28;20267;-70
2022/01/25 05:12:34;;;;;;;69.85;24.90;;;3.00;75.40;;;;;;5084025;28;20198;-70
2022/01/25 05:15:27;;;;;;;43.78;21.77;;;3.00;75.40;;;;;;5082567;28;20279;-70
2022/01/25 05:18:09;;;;;;;49.78;22.00;;;3.00;75.60;;;;;;5080183;28;20979;-70
2022/01/25 05:23:22;;;;;;;37.80;20.95;;;3.00;75.70;;;;;;5086145;28;20859;-70
2022/01/25 05:25:50;;;;;;;39.28;22.83;;;3.00;75.80;;;;;;5080473;28;20215;-70
2022/01/25 05:28:18;;;;;;;50.88;23.65;;;3.00;75.80;;;;;;5077744;28;20832;-70
2022/01/25 05:30:46;;;;;;;43.03;22.98;;;3.00;75.80;;;;;;5081141;28;20238;-70
2022/01/25 05:33:15;;;;;;;45.90;20.50;;;3.00;75.80;;;;;;5078019;28;20838;-70
2022/01/25 05:35:43;;;;;;;35.40;20.25;;;3.00;75.90;;;;;;5081095;28;20222;-70
2022/01/25 05:38:11;;;;;;;33.22;19.98;;;2.90;75.90;;;;;;5060826;28;20249;-70
2022/01/25 05:40:45;;;;;;;38.60;20.35;;;2.90;76.00;;;;;;5081686;28;20887;-70
2022/01/25 05:46:10;;;;;;;65.35;22.40;;;2.90;76.00;;;;;;5082543;28;20309;-70
2022/01/25 05:48:40;;;;;;;75.97;22.85;;;2.90;76.00;;;;;;5084481;28;20195;-70
2022/01/25 05:51:08;;;;;;;64.43;22.20;;;2.90;76.00;;;;;;5080939;28;20206;-71
2022/01/25 05:53:36;;;;;;;51.50;24.33;;;2.80;75.90;;;;;;5086075;28;20565;-70
2022/01/25 05:56:05;;;;;;;118.57;40.15;;;2.80;76.00;;;;;;5085460;28;20237;-70
2022/01/25 05:58:33;;;;;;;89.15;42.67;;;2.80;76.00;;;;;;5084371;28;20219;-70
2022/01/25 06:01:01;;;;;;;158.65;50.60;;;2.70;76.00;;;;;;5084445;28;20249;-70
2022/01/25 06:03:29;;;;;;;122.00;43.58;;;2.70;76.00;;;;;;5062992;28;20252;-71
2022/01/25 06:05:58;;;;;;;183.95;54.05;;;2.70;76.00;;;;;;5080914;28;20219;-70
2022/01/25 06:08:26;;;;;;;146.98;48.17;;;2.60;76.00;;;;;;5084050;28;20965;-71
2022/01/25 06:10:56;;;;;;;98.18;34.78;;;2.60;76.00;;;;;;5082860;28;20210;-70
2022/01/25 06:13:24;;;;;;;90.18;34.50;;;2.50;75.90;;;;;;5065992;28;20860;-70
2022/01/25 06:15:52;;;;;;;117.05;37.75;;;2.40;75.80;;;;;;5083767;28;20247;-70
2022/01/25 06:18:20;;;;;;;208.13;52.70;;;2.30;75.90;;;;;;5085914;28;20214;-70
2022/01/25 06:20:48;;;;;;;111.78;41.08;;;2.30;75.90;;;;;;5082390;28;20260;-70
2022/01/25 06:23:17;;;;;;;84.78;38.20;;;2.20;75.90;;;;;;5083204;28;20448;-70
2022/01/25 06:25:45;;;;;;;84.70;37.80;;;2.10;76.10;;;;;;5067168;28;20230;-70
2022/01/25 06:28:13;;;;;;;114.45;43.72;;;2.10;76.20;;;;;;5084199;28;20198;-70
2022/01/25 06:30:41;;;;;;;55.97;31.92;;;2.10;76.30;;;;;;5082503;28;20239;-70
2022/01/25 06:33:09;;;;;;;45.88;26.77;;;2.10;76.40;;;;;;5081683;28;20226;-70
2022/01/25 06:35:38;;;;;;;44.83;26.00;;;2.10;76.60;;;;;;5081513;28;20582;-71
2022/01/25 06:38:06;;;;;;;49.53;27.20;;;2.20;76.60;;;;;;5082743;28;20609;-71
2022/01/25 06:40:35;;;;;;;64.57;28.83;;;2.20;76.60;;;;;;5084298;28;20956;-70
2022/01/25 06:43:03;;;;;;;58.45;31.48;;;2.20;76.60;;;;;;5082512;28;20210;-70
2022/01/25 06:45:31;;;;;;;64.38;34.47;;;2.20;76.60;;;;;;5077804;28;20242;-70
2022/01/25 06:47:59;;;;;;;83.68;32.20;;;2.20;76.70;;;;;;5085246;28;20520;-70
2022/01/25 06:50:27;;;;;;;58.55;29.50;;;2.20;76.70;;;;;;5085604;28;20771;-71
2022/01/25 06:52:55;;;;;;;47.95;26.65;;;2.20;76.70;;;;;;5081866;28;20288;-71
2022/01/25 06:55:41;;;;;;;54.67;27.05;;;2.20;76.70;;;;;;5083207;28;20728;-71
2022/01/25 06:58:10;;;;;;;59.72;30.08;;;2.20;76.70;;;;;;5078479;28;20196;-70
2022/01/25 07:00:39;;;;;;;50.67;28.63;;;2.20;76.70;;;;;;5058963;28;20650;-71
2022/01/25 07:03:07;;;;;;;44.53;25.48;;;2.20;76.80;;;;;;5055911;28;20203;-72
2022/01/25 07:05:35;;;;;;;44.72;24.48;;;2.20;76.80;;;;;;5077141;28;20256;-70
2022/01/25 07:08:04;;;;;;;48.35;25.65;;;2.20;76.90;;;;;;5078937;28;20260;-70
2022/01/25 07:10:32;;;;;;;42.83;24.70;;;2.20;76.90;;;;;;5059064;28;20203;-71
2022/01/25 07:13:01;;;;;;;55.28;24.60;;;2.30;77.00;;;;;;5080786;28;20211;-72
2022/01/25 07:15:29;;;;;;;125.82;29.55;;;2.30;77.00;;;;;;5076329;28;20232;-70
2022/01/25 07:17:57;;;;;;;86.43;27.13;;;2.30;76.90;;;;;;5074325;28;20199;-70
2022/01/25 07:20:26;;;;;;;79.63;26.63;;;2.30;76.80;;;;;;5059343;28;20219;-70
2022/01/25 07:22:54;;;;;;;64.80;27.50;;;2.20;76.80;;;;;;5077047;28;20246;-70
2022/01/25 07:25:22;;;;;;;60.35;31.45;;;2.20;76.90;;;;;;5073822;28;20806;-70
2022/01/25 07:27:50;;;;;;;90.00;35.75;;;2.20;77.00;;;;;;5075958;28;20199;-71
2022/01/25 07:30:20;;;;;;;123.75;38.97;;;2.20;77.00;;;;;;5076270;28;20249;-70
2022/01/25 07:32:48;;;;;;;97.30;45.67;;;2.20;76.90;;;;;;5074808;28;20332;-71
2022/01/25 07:35:30;;;;;;;139.20;50.95;;;2.20;76.80;;;;;;5052566;28;20237;-72
2022/01/25 07:37:58;;;;;;;160.70;51.13;;;2.20;77.00;;;;;;5075340;28;20202;-71
2022/01/25 07:40:26;;;;;;;110.53;44.45;;;2.20;77.20;;;;;;5078356;28;20223;-70
2022/01/25 07:42:55;;;;;;;93.68;37.38;;;2.20;77.20;;;;;;5078097;28;20199;-71
2022/01/25 07:45:35;;;;;;;101.10;31.55;;;2.20;77.20;;;;;;5080381;28;20767;-70
2022/01/25 07:48:08;;;;;;;52.03;27.45;;;2.20;77.00;;;;;;5082377;28;20199;-72
2022/01/25 07:50:39;;;;;;;74.55;28.17;;;2.10;76.90;;;;;;5078595;28;20195;-72
2022/01/25 07:53:07;;;;;;;76.35;28.50;;;2.10;77.00;;;;;;5077802;28;20211;-72
2022/01/25 07:55:35;;;;;;;83.35;26.55;;;2.10;77.30;;;;;;5080741;28;20268;-70
2022/01/25 07:58:04;;;;;;;52.60;26.67;;;2.10;77.40;;;;;;5079568;28;20336;-70
2022/01/25 08:00:33;;;;;;;38.03;23.15;;;2.10;77.40;;;;;;5078559;28;20230;-71
2022/01/25 08:03:02;;;;;;;42.22;24.50;;;2.10;77.60;;;;;;5056493;28;20244;-71
2022/01/25 08:05:41;;;;;;;41.35;24.38;;;2.10;77.60;;;;;;5077589;28;20234;-71
2022/01/25 08:08:23;;;;;;;39.75;23.92;;;2.10;77.70;;;;;;5070732;28;20334;-71
2022/01/25 08:10:54;;;;;;;44.80;25.42;;;2.20;77.70;;;;;;5069866;28;20635;-72
2022/01/25 08:13:30;;;;;;;57.67;29.90;;;2.20;77.70;;;;;;5070520;28;20252;-69
2022/01/25 08:16:09;;;;;;;48.17;26.65;;;2.20;77.60;;;;;;5074930;28;20314;-70
2022/01/25 08:18:39;;;;;;;58.90;32.40;;;2.20;77.60;;;;;;5077088;28;20227;-72
2022/01/25 08:21:19;;;;;;;80.50;41.50;;;2.30;77.80;;;;;;5079379;28;20209;-70
2022/01/25 08:24:02;;;;;;;55.03;30.52;;;2.30;77.70;;;;;;5078163;28;20242;-71
2022/01/25 08:26:43;;;;;;;54.80;30.98;;;2.30;77.80;;;;;;5075479;28;20202;-70
2022/01/25 08:29:31;;;;;;;53.67;32.90;;;2.40;78.10;;;;;;4998795;28;20308;-70
2022/01/25 08:32:03;;;;;;;62.10;34.30;;;2.40;78.10;;;;;;4998034;28;20316;-70
2022/01/25 08:34:45;;;;;;;121.22;54.67;;;2.50;78.10;;;;;;4973750;28;20226;-70
2022/01/25 08:37:17;;;;;;;97.90;49.05;;;2.60;78.20;;;;;;4998762;28;20214;-70
2022/01/25 08:39:45;;;;;;;66.40;34.33;;;2.70;78.30;;;;;;5006049;28;20951;-71
2022/01/25 08:42:27;;;;;;;50.78;31.30;;;2.70;78.30;;;;;;5067075;28;20219;-70
2022/01/25 08:45:06;;;;;;;56.20;30.88;;;2.80;78.30;;;;;;5058922;28;20267;-71
2022/01/25 08:47:41;;;;;;;51.42;31.60;;;2.80;78.30;;;;;;5078349;28;20911;-70
2022/01/25 08:50:10;;;;;;;63.42;34.85;;;2.90;78.30;;;;;;5077669;28;20863;-70
2022/01/25 08:52:42;;;;;;;52.88;30.67;;;2.90;78.30;;;;;;5053952;28;20206;-71
2022/01/25 08:55:31;;;;;;;52.53;30.42;;;3.00;78.30;;;;;;5074403;28;20221;-70
2022/01/25 08:58:04;;;;;;;50.58;27.67;;;3.00;78.30;;;;;;5082272;28;20198;-70
2022/01/25 09:00:35;;;;;;;55.80;27.77;;;3.00;78.40;;;;;;5072238;28;20980;-70
2022/01/25 09:03:05;;;;;;;58.67;30.92;;;3.00;78.40;;;;;;5076379;28;20200;-70
2022/01/25 09:05:34;;;;;;;49.85;30.60;;;3.10;78.30;;;;;;5077398;28;20899;-72
2022/01/25 09:08:02;;;;;;;57.83;31.05;;;3.10;78.30;;;;;;5080656;28;20222;-73
2022/01/25 09:10:30;;;;;;;51.45;27.45;;;3.10;78.40;;;;;;5072885;28;20199;-72
2022/01/25 09:12:59;;;;;;;53.85;26.00;;;3.20;78.40;;;;;;5076332;28;20235;-71
2022/01/25 09:15:28;;;;;;;55.13;27.15;;;3.20;78.40;;;;;;5074353;28;20285;-71
2022/01/25 09:17:56;;;;;;;46.17;24.30;;;3.20;78.50;;;;;;5078649;28;20211;-70
2022/01/25 09:20:25;;;;;;;54.70;26.50;;;3.20;78.30;;;;;;5080952;28;20214;-71
2022/01/25 09:22:53;;;;;;;39.10;23.27;;;3.30;78.50;;;;;;5081058;28;20206;-73
2022/01/25 09:25:29;;;;;;;53.17;23.73;;;3.30;78.40;;;;;;5079805;28;20280;-74
2022/01/25 09:27:57;;;;;;;44.10;22.02;;;3.30;78.50;;;;;;5075493;28;20716;-72
2022/01/25 09:30:25;;;;;;;55.92;25.52;;;3.30;78.60;;;;;;5076184;28;20211;-71
2022/01/25 09:32:54;;;;;;;50.00;23.73;;;3.30;78.70;;;;;;5076764;28;20252;-70
2022/01/25 09:35:27;;;;;;;48.88;24.92;;;3.40;78.80;;;;;;5059205;28;20222;-70
2022/01/25 09:37:57;;;;;;;45.25;23.30;;;3.40;78.80;;;;;;5084221;28;20203;-71
2022/01/25 09:40:26;;;;;;;44.15;22.48;;;3.50;78.80;;;;;;5056994;28;20222;-72
2022/01/25 09:42:57;;;;;;;47.90;22.15;;;3.50;78.80;;;;;;5061283;28;20207;-70
2022/01/25 09:45:27;;;;;;;56.33;22.02;;;3.50;78.90;;;;;;5068078;28;20284;-70
2022/01/25 09:47:55;;;;;;;43.33;22.17;;;3.60;78.80;;;;;;5078286;28;20195;-70
2022/01/25 09:50:26;;;;;;;53.20;25.75;;;3.60;78.80;;;;;;5062234;28;20284;-72
2022/01/25 09:52:55;;;;;;;50.03;23.48;;;3.60;78.80;;;;;;5084536;28;20211;-71
2022/01/25 09:55:25;;;;;;;43.70;23.23;;;3.60;78.90;;;;;;5077549;28;20227;-71
2022/01/25 09:57:53;;;;;;;46.78;20.35;;;3.60;79.00;;;;;;5081462;28;20196;-70
2022/01/25 10:00:24;;;;;;;45.35;23.25;;;3.70;79.20;;;;;;5081566;28;20328;-70
2022/01/25 10:02:58;;;;;;;47.88;24.10;;;3.70;79.20;;;;;;5084484;28;20923;-70
2022/01/25 10:05:33;;;;;;;58.97;24.38;;;3.80;78.90;;;;;;5083628;28;20226;-70
2022/01/25 10:08:04;;;;;;;52.75;22.60;;;3.80;79.00;;;;;;5084317;28;20209;-70
2022/01/25 10:10:32;;;;;;;50.88;23.85;;;3.80;79.00;;;;;;5082738;28;20818;-71
2022/01/25 10:13:09;;;;;;;52.00;27.77;;;3.80;79.20;;;;;;5081401;28;20199;-70
2022/01/25 10:15:38;;;;;;;54.42;27.10;;;3.80;79.20;;;;;;5081849;28;20370;-71
2022/01/25 10:18:14;;;;;;;62.63;29.73;;;3.80;79.30;;;;;;5086172;28;20263;-70
2022/01/25 10:20:44;;;;;;;79.13;38.60;;;3.90;79.30;;;;;;5081975;28;20268;-70
2022/01/25 10:23:17;;;;;;;67.82;31.48;;;3.90;79.20;;;;;;5081556;28;20203;-71
2022/01/25 10:25:47;;;;;;;65.93;32.05;;;3.90;79.30;;;;;;5082892;28;20249;-71
2022/01/25 10:28:16;;;;;;;61.17;28.33;;;3.90;79.30;;;;;;5084203;28;20703;-71
2022/01/25 10:30:50;;;;;;;56.33;29.20;;;3.90;79.40;;;;;;5084209;28;20222;-70
2022/01/25 10:33:27;;;;;;;68.35;34.95;;;3.90;79.50;;;;;;5081490;28;20192;-71
2022/01/25 10:35:58;;;;;;;61.53;30.67;;;3.90;79.50;;;;;;5079174;28;20645;-71
2022/01/25 10:38:29;;;;;;;69.65;36.45;;;4.00;79.40;;;;;;5084736;28;20222;-71
2022/01/25 10:41:00;;;;;;;50.60;27.33;;;4.00;79.50;;;;;;5083887;28;20215;-70
2022/01/25 10:43:30;;;;;;;36.47;21.20;;;4.00;79.40;;;;;;5083680;28;20206;-71
2022/01/25 10:46:10;;;;;;;38.67;21.48;;;4.00;79.40;;;;;;5080872;28;20380;-71
2022/01/25 10:48:40;;;;;;;46.30;24.05;;;4.00;79.50;;;;;;5080807;28;20289;-71
2022/01/25 10:51:17;;;;;;;47.13;24.65;;;4.00;79.60;;;;;;5080760;28;20196;-71
2022/01/25 10:53:45;;;;;;;45.70;24.58;;;4.10;79.70;;;;;;5085126;28;20954;-70
2022/01/25 10:56:14;;;;;;;47.33;25.88;;;4.10;79.70;;;;;;5079296;28;20269;-70
2022/01/25 10:58:43;;;;;;;47.65;24.33;;;4.20;79.80;;;;;;5078562;28;20198;-70
2022/01/25 11:01:11;;;;;;;44.60;25.20;;;4.20;79.70;;;;;;5076108;28;20280;-70
2022/01/25 11:03:42;;;;;;;42.63;22.83;;;4.20;79.70;;;;;;5078992;28;20281;-70
2022/01/25 11:06:14;;;;;;;48.40;23.40;;;4.20;79.60;;;;;;5082260;28;20289;-70
2022/01/25 11:08:45;;;;;;;45.85;22.35;;;4.10;79.40;;;;;;5060371;28;20256;-70
2022/01/25 11:11:24;;;;;;;44.97;22.73;;;4.10;79.60;;;;;;5084686;28;20199;-70
2022/01/25 11:13:54;;;;;;;44.47;24.50;;;4.10;79.70;;;;;;5077396;28;20206;-70
2022/01/25 11:16:23;;;;;;;47.53;23.30;;;4.10;79.80;;;;;;5073319;28;20233;-70
2022/01/25 11:18:57;;;;;;;42.50;22.52;;;4.10;79.60;;;;;;5079567;28;20975;-70
2022/01/25 11:21:27;;;;;;;48.90;24.30;;;4.10;79.80;;;;;;5077060;28;20219;-70
2022/01/25 11:23:56;;;;;;;55.15;28.55;;;4.10;79.90;;;;;;5058343;28;20207;-70
2022/01/25 11:26:25;;;;;;;52.00;25.70;;;4.10;80.00;;;;;;5075374;28;21205;-70
2022/01/25 11:28:53;;;;;;;50.72;24.95;;;4.10;79.90;;;;;;5075248;28;20857;-70
2022/01/25 11:31:24;;;;;;;55.83;28.73;;;4.10;80.00;;;;;;5075358;28;20931;-70
2022/01/25 11:33:54;;;;;;;38.42;21.35;;;4.10;80.10;;;;;;5076225;28;20221;-70
2022/01/25 11:36:22;;;;;;;39.78;21.90;;;4.20;80.10;;;;;;5078147;28;20206;-69
2022/01/25 11:38:53;;;;;;;45.33;23.88;;;4.10;79.90;;;;;;5077892;28;20207;-72
2022/01/25 11:41:24;;;;;;;50.95;25.33;;;4.10;79.90;;;;;;5077338;28;20276;-70
2022/01/25 11:44:09;;;;;;;46.97;25.70;;;4.10;80.00;;;;;;5074717;28;20290;-70
2022/01/25 11:46:40;;;;;;;53.33;30.20;;;4.10;80.30;;;;;;5077048;28;20250;-70
2022/01/25 11:49:14;;;;;;;42.10;21.75;;;4.00;80.00;;;;;;5080896;28;20206;-70
2022/01/25 11:51:43;;;;;;;42.67;22.23;;;4.00;80.00;;;;;;5074832;28;20843;-70
2022/01/25 11:54:12;;;;;;;45.70;25.60;;;3.90;80.10;;;;;;5079390;28;20727;-70
2022/01/25 11:56:42;;;;;;;39.75;22.58;;;3.90;80.30;;;;;;5074568;28;20207;-70
2022/01/25 11:59:13;;;;;;;47.65;24.48;;;3.90;80.30;;;;;;5059984;28;20207;-70
2022/01/25 12:01:41;;;;;;;57.35;26.73;;;3.90;80.50;;;;;;5072706;28;20231;-70
2022/01/25 12:04:12;;;;;;;49.55;25.15;;;3.90;80.50;;;;;;5067139;28;20231;-70
2022/01/25 12:06:44;;;;;;;44.28;23.75;;;4.00;80.60;;;;;;5073001;28;20206;-70
2022/01/25 12:09:30;;;;;;;38.85;21.48;;;4.00;80.70;;;;;;5057716;28;20194;-70
2022/01/25 12:12:01;;;;;;;41.88;23.83;;;4.10;80.70;;;;;;5074031;28;20670;-70
2022/01/25 12:14:33;;;;;;;45.78;21.58;;;4.10;80.60;;;;;;5076299;28;20233;-70
2022/01/25 12:17:11;;;;;;;45.03;24.52;;;4.10;80.70;;;;;;5080874;28;20239;-71
2022/01/25 12:19:44;;;;;;;48.38;24.05;;;4.10;80.80;;;;;;5082010;28;20209;-70
2022/01/25 12:22:36;;;;;;;44.75;24.02;;;4.20;80.70;;;;;;5077503;28;20288;-70
2022/01/25 12:25:13;;;;;;;50.72;25.10;;;4.20;80.70;;;;;;5079908;28;20235;-70
2022/01/25 12:27:48;;;;;;;42.67;23.52;;;4.30;80.80;;;;;;5077540;28;20202;-70
2022/01/25 12:30:21;;;;;;;40.63;23.05;;;4.30;80.70;;;;;;5075956;28;20194;-70
2022/01/25 12:32:55;;;;;;;38.17;21.52;;;4.30;80.70;;;;;;5075717;28;20607;-70
2022/01/25 12:35:45;;;;;;;36.42;21.75;;;4.30;80.70;;;;;;5080349;28;20219;-70
2022/01/25 12:38:15;;;;;;;42.33;22.27;;;4.40;80.80;;;;;;5074843;28;20232;-70
2022/01/25 12:41:00;;;;;;;49.65;23.23;;;4.40;80.70;;;;;;5081028;28;20207;-70
2022/01/25 12:43:34;;;;;;;37.92;21.80;;;4.40;80.70;;;;;;5075666;28;20211;-70
2022/01/25 12:46:05;;;;;;;41.33;22.60;;;4.40;80.70;;;;;;5075621;28;20848;-70
2022/01/25 12:48:36;;;;;;;40.70;23.80;;;4.40;80.70;;;;;;5073533;28;20230;-70
2022/01/25 12:51:06;;;;;;;41.28;24.27;;;4.40;80.60;;;;;;5076998;28;20199;-70
2022/01/25 12:53:38;;;;;;;40.90;23.02;;;4.40;80.60;;;;;;5078174;28;21025;-70
2022/01/25 12:56:10;;;;;;;40.28;22.25;;;4.50;80.60;;;;;;5078529;28;20190;-71
2022/01/25 12:58:39;;;;;;;42.72;23.95;;;4.40;80.60;;;;;;5081688;28;20860;-70
2022/01/25 13:01:09;;;;;;;38.58;23.38;;;4.50;80.70;;;;;;5060228;28;20235;-70
2022/01/25 13:03:42;;;;;;;46.38;25.60;;;4.50;80.70;;;;;;5078542;28;20211;-70
2022/01/25 13:06:13;;;;;;;40.92;23.40;;;4.50;80.70;;;;;;5079006;28;20199;-70
2022/01/25 13:08:47;;;;;;;40.17;23.35;;;4.50;80.80;;;;;;5080911;28;20203;-70
2022/01/25 13:11:28;;;;;;;47.65;26.27;;;4.50;80.70;;;;;;5080924;28;20191;-69
2022/01/25 13:14:15;;;;;;;41.35;23.30;;;4.60;80.70;;;;;;5083697;28;20248;-70
2022/01/25 13:16:47;;;;;;;43.97;25.42;;;4.60;80.80;;;;;;5064341;28;20226;-70
2022/01/25 13:19:18;;;;;;;42.55;21.70;;;4.70;80.80;;;;;;5078567;28;20925;-70
2022/01/25 13:21:51;;;;;;;39.55;21.10;;;4.70;80.80;;;;;;5077095;28;20257;-70
2022/01/25 13:24:43;;;;;;;43.20;24.52;;;4.70;80.80;;;;;;5076394;28;20226;-70
2022/01/25 13:27:14;;;;;;;35.13;20.88;;;4.70;80.70;;;;;;5081877;28;20191;-69
2022/01/25 13:32:35;;;;;;;41.65;22.00;;;4.70;80.80;;;;;;5078443;28;20219;-70
2022/01/25 13:35:19;;;;;;;39.70;20.58;;;4.70;80.80;;;;;;5081103;28;20280;-70
2022/01/25 13:38:01;;;;;;;44.63;21.88;;;4.70;80.80;;;;;;5059684;28;20209;-70
2022/01/25 13:40:36;;;;;;;39.42;21.20;;;4.70;80.80;;;;;;5078588;28;20295;-71
2022/01/25 13:43:31;;;;;;;37.47;20.55;;;4.70;80.90;;;;;;5078547;28;20281;-70
2022/01/25 13:46:00;;;;;;;35.80;20.38;;;4.80;80.90;;;;;;5063630;28;21304;-70
2022/01/25 13:48:29;;;;;;;43.08;22.23;;;4.80;80.90;;;;;;5061531;28;20256;-70
2022/01/25 13:51:00;;;;;;;44.28;24.05;;;4.80;80.90;;;;;;5079183;28;20327;-70
2022/01/25 13:53:29;;;;;;;44.67;24.10;;;4.80;80.90;;;;;;5079430;28;20191;-70
2022/01/25 13:55:59;;;;;;;39.13;21.98;;;4.80;80.80;;;;;;5078463;28;20759;-70
2022/01/25 13:58:31;;;;;;;45.03;24.40;;;4.80;80.80;;;;;;5076495;28;20195;-70
2022/01/25 14:01:01;;;;;;;47.38;24.00;;;4.80;80.80;;;;;;5075939;28;20794;-70
2022/01/25 14:03:32;;;;;;;42.83;23.52;;;4.80;80.70;;;;;;5069841;28;20651;-71
2022/01/25 14:06:00;;;;;;;43.85;24.08;;;4.70;80.90;;;;;;5072214;28;20232;-70
2022/01/25 14:08:34;;;;;;;45.90;23.20;;;4.70;80.90;;;;;;5079356;28;20271;-71
2022/01/25 14:11:18;;;;;;;46.70;23.90;;;4.70;80.80;;;;;;5075150;28;20203;-69
2022/01/25 14:24:52;;;;;;;53.40;23.00;;;4.70;81.00;;;;;;5059593;28;20503;-70
2022/01/25 14:27:23;;;;;;;57.00;26.30;;;4.70;81.00;;;;;;5077887;28;20213;-70
2022/01/25 14:29:53;;;;;;;55.28;26.42;;;4.70;81.00;;;;;;5083216;28;20245;-71